createdAt,value
2022-09-28T00:01:09.271Z,94103.88
2022-09-28T00:03:37.175Z,94098.33
2022-09-28T00:06:06.850Z,94095.19
2022-09-28T00:08:35.436Z,94092.65
2022-09-28T00:11:04.638Z,94094.90
2022-09-28T00:13:33.528Z,94097.41
2022-09-28T00:16:06.234Z,94101.59
2022-09-28T00:18:35.530Z,94103.64
2022-09-28T00:21:12.336Z,94114.57
2022-09-28T00:24:00.845Z,94115.16
2022-09-28T00:26:30.148Z,94110.65
2022-09-28T00:28:59.371Z,94107.91
2022-09-28T00:31:28.304Z,94119.35
2022-09-28T00:34:00.616Z,94120.23
2022-09-28T00:36:29.563Z,94116.44
2022-09-28T00:38:58.193Z,94108.39
2022-09-28T00:41:27.355Z,94107.25
2022-09-28T00:44:15.245Z,94116.36
2022-09-28T00:46:43.220Z,94116.83
2022-09-28T00:49:14.889Z,94111.40
2022-09-28T00:51:44.976Z,94107.16
2022-09-28T00:54:14.944Z,94109.63
2022-09-28T00:56:44.810Z,94107.14
2022-09-28T00:59:13.284Z,94104.11
2022-09-28T01:01:41.328Z,94099.80
2022-09-28T01:04:10.258Z,94102.02
2022-09-28T01:06:39.254Z,94100.55
2022-09-28T01:09:08.767Z,94099.32
2022-09-28T01:11:37.932Z,94099.02
2022-09-28T01:14:08.849Z,94104.67
2022-09-28T01:16:46.039Z,94112.02
2022-09-28T01:19:42.714Z,94115.10
2022-09-28T01:22:29.136Z,94123.66
2022-09-28T01:25:17.402Z,94122.66
2022-09-28T01:27:51.906Z,94117.46
2022-09-28T01:30:21.391Z,94114.42
2022-09-28T01:32:58.703Z,94125.33
2022-09-28T01:35:33.712Z,94134.23
2022-09-28T01:38:12.257Z,94147.34
2022-09-28T01:40:41.312Z,94148.14
2022-09-28T01:43:18.028Z,94149.52
2022-09-28T01:45:51.602Z,94136.80
2022-09-28T01:48:24.315Z,94138.46
2022-09-28T01:50:55.717Z,94137.14
2022-09-28T01:53:33.054Z,94135.95
2022-09-28T01:56:07.645Z,94139.66
2022-09-28T01:58:39.340Z,94130.81
2022-09-28T02:01:13.491Z,94131.27
2022-09-28T02:03:47.118Z,94138.13
2022-09-28T02:06:18.781Z,94144.05
2022-09-28T02:08:54.049Z,94146.30
2022-09-28T02:11:23.440Z,94145.44
2022-09-28T02:14:05.770Z,94150.42
2022-09-28T02:16:39.999Z,94145.25
2022-09-28T02:19:17.598Z,94144.98
2022-09-28T02:21:51.805Z,94152.52
2022-09-28T02:24:24.692Z,94159.57
2022-09-28T02:26:55.320Z,94153.34
2022-09-28T02:29:23.742Z,94158.62
2022-09-28T02:31:52.350Z,94159.14
2022-09-28T02:34:20.589Z,94168.16
2022-09-28T02:36:48.636Z,94163.58
2022-09-28T02:39:18.095Z,94176.02
2022-09-28T02:41:46.445Z,94177.81
2022-09-28T02:44:40.573Z,94176.21
2022-09-28T02:47:22.058Z,94184.09
2022-09-28T02:49:53.868Z,94184.09
2022-09-28T02:52:27.973Z,94185.96
2022-09-28T02:54:59.013Z,94190.17
2022-09-28T02:57:45.726Z,94189.58
2022-09-28T03:00:23.935Z,94181.85
2022-09-28T03:03:10.953Z,94184.90
2022-09-28T03:05:47.423Z,94189.80
2022-09-28T03:08:27.979Z,94186.88
2022-09-28T03:11:01.351Z,94191.60
2022-09-28T03:13:30.399Z,94192.23
2022-09-28T03:16:08.716Z,94198.23
2022-09-28T03:18:36.953Z,94202.17
2022-09-28T03:21:05.596Z,94207.16
2022-09-28T03:23:34.248Z,94217.55
2022-09-28T03:26:02.493Z,94218.48
2022-09-28T03:28:31.008Z,94221.09
2022-09-28T03:30:59.187Z,94222.50
2022-09-28T03:33:27.374Z,94227.96
2022-09-28T03:35:55.435Z,94236.52
2022-09-28T03:38:24.462Z,94231.98
2022-09-28T03:40:53.512Z,94232.94
2022-09-28T03:43:22.109Z,94239.57
2022-09-28T03:45:57.976Z,94233.76
2022-09-28T03:48:32.751Z,94233.17
2022-09-28T03:51:03.027Z,94235.41
2022-09-28T03:53:31.378Z,94245.10
2022-09-28T03:56:17.718Z,94246.73
2022-09-28T03:58:45.794Z,94245.54
2022-09-28T04:01:17.519Z,94241.97
2022-09-28T04:03:47.452Z,94238.30
2022-09-28T04:06:15.640Z,94239.17
2022-09-28T04:08:43.699Z,94240.80
2022-09-28T04:11:12.134Z,94248.50
2022-09-28T04:13:40.072Z,94252.02
2022-09-28T04:16:12.081Z,94257.34
2022-09-28T04:18:44.033Z,94266.59
2022-09-28T04:21:16.796Z,94264.05
2022-09-28T04:23:53.149Z,94264.84
2022-09-28T04:26:26.432Z,94267.95
2022-09-28T04:29:13.302Z,94275.60
2022-09-28T04:31:45.992Z,94273.04
2022-09-28T04:34:17.795Z,94269.33
2022-09-28T04:36:46.676Z,94271.80
2022-09-28T04:39:15.941Z,94268.42
2022-09-28T04:41:48.184Z,94271.38
2022-09-28T04:44:16.945Z,94279.41
2022-09-28T04:46:46.751Z,94279.86
2022-09-28T04:49:29.721Z,94275.21
2022-09-28T04:52:00.021Z,94278.81
2022-09-28T04:54:27.966Z,94280.73
2022-09-28T04:56:58.299Z,94286.17
2022-09-28T04:59:26.476Z,94284.41
2022-09-28T05:01:54.590Z,94287.92
2022-09-28T05:04:52.317Z,94289.10
2022-09-28T05:07:46.218Z,94285.16
2022-09-28T05:10:14.372Z,94286.60
2022-09-28T05:12:43.021Z,94294.38
2022-09-28T05:15:12.195Z,94296.73
2022-09-28T05:17:40.069Z,94293.48
2022-09-28T05:20:20.915Z,94296.65
2022-09-28T05:22:49.402Z,94301.77
2022-09-28T05:25:18.530Z,94306.04
2022-09-28T05:28:05.498Z,94308.92
2022-09-28T05:31:03.780Z,94313.65
2022-09-28T05:33:52.138Z,94321.14
2022-09-28T05:36:20.408Z,94315.13
2022-09-28T05:38:48.381Z,94319.66
2022-09-28T05:41:17.192Z,94323.17
2022-09-28T05:43:45.912Z,94320.93
2022-09-28T05:46:14.977Z,94322.04
2022-09-28T05:48:43.189Z,94322.30
2022-09-28T05:51:12.435Z,94329.27
2022-09-28T05:53:40.402Z,94332.45
2022-09-28T05:56:08.681Z,94337.23
2022-09-28T05:58:39.328Z,94335.55
2022-09-28T06:01:07.611Z,94318.11
2022-09-28T06:03:35.791Z,94316.19
2022-09-28T06:06:04.969Z,94320.45
2022-09-28T06:08:33.190Z,94314.13
2022-09-28T06:11:28.403Z,94313.30
2022-09-28T06:13:58.897Z,94320.98
2022-09-28T06:16:29.979Z,94335.46
2022-09-28T06:18:58.013Z,94348.59
2022-09-28T06:21:40.411Z,94347.71
2022-09-28T06:24:09.234Z,94349.71
2022-09-28T06:26:40.347Z,94350.08
2022-09-28T06:29:08.701Z,94346.39
2022-09-28T06:31:36.799Z,94346.91
2022-09-28T06:34:05.181Z,94339.98
2022-09-28T06:36:34.004Z,94337.09
2022-09-28T06:39:02.198Z,94342.34
2022-09-28T06:41:30.526Z,94347.52
2022-09-28T06:44:02.256Z,94348.27
2022-09-28T06:46:48.895Z,94348.48
2022-09-28T06:49:47.910Z,94364.85
2022-09-28T06:52:49.798Z,94367.95
2022-09-28T06:55:39.236Z,94367.70
2022-09-28T06:58:10.687Z,94370.97
2022-09-28T07:00:39.783Z,94366.17
2022-09-28T07:03:11.053Z,94361.95
2022-09-28T07:06:02.399Z,94371.86
2022-09-28T07:09:12.074Z,94369.26
2022-09-28T07:12:05.206Z,94369.60
2022-09-28T07:14:48.063Z,94367.59
2022-09-28T07:17:16.971Z,94373.60
2022-09-28T07:19:45.062Z,94375.40
2022-09-28T07:22:18.551Z,94372.13
2022-09-28T07:24:49.200Z,94372.16
2022-09-28T07:27:39.696Z,94382.01
2022-09-28T07:30:29.244Z,94380.91
2022-09-28T07:33:17.408Z,94382.84
2022-09-28T07:35:55.432Z,94386.33
2022-09-28T07:38:29.935Z,94391.04
2022-09-28T07:41:22.734Z,94391.05
2022-09-28T07:43:52.562Z,94392.64
2022-09-28T07:46:21.437Z,94394.61
2022-09-28T07:48:56.741Z,94395.18
2022-09-28T07:51:44.990Z,94397.56
2022-09-28T07:54:24.595Z,94394.70
2022-09-28T07:57:08.065Z,94405.19
2022-09-28T07:59:48.016Z,94406.10
2022-09-28T08:02:35.670Z,94404.64
2022-09-28T08:05:04.851Z,94403.40
2022-09-28T08:07:34.696Z,94405.19
2022-09-28T08:10:06.118Z,94411.41
2022-09-28T08:13:09.620Z,94417.03
2022-09-28T08:15:53.798Z,94421.67
2022-09-28T08:18:35.259Z,94419.31
2022-09-28T08:21:22.587Z,94417.38
2022-09-28T08:23:51.298Z,94421.73
2022-09-28T08:26:19.346Z,94421.77
2022-09-28T08:28:48.239Z,94423.34
2022-09-28T08:31:48.827Z,94422.29
2022-09-28T08:34:32.516Z,94425.36
2022-09-28T08:37:24.688Z,94440.26
2022-09-28T08:40:19.183Z,94435.42
2022-09-28T08:43:39.867Z,94442.23
2022-09-28T08:46:36.107Z,94437.31
2022-09-28T08:49:51.511Z,94437.39
2022-09-28T08:52:30.092Z,94439.59
2022-09-28T08:55:29.201Z,94436.24
2022-09-28T08:58:17.817Z,94438.02
2022-09-28T09:00:48.861Z,94435.61
2022-09-28T09:03:21.162Z,94442.39
2022-09-28T09:06:15.277Z,94439.92
2022-09-28T09:09:18.213Z,94434.97
2022-09-28T09:12:12.964Z,94432.16
2022-09-28T09:15:01.168Z,94429.88
2022-09-28T09:17:36.120Z,94424.23
2022-09-28T09:20:34.401Z,94423.92
2022-09-28T09:23:40.221Z,94430.45
2022-09-28T09:26:15.997Z,94434.42
2022-09-28T09:28:58.016Z,94429.67
2022-09-28T09:31:37.465Z,94427.52
2022-09-28T09:34:06.892Z,94433.95
2022-09-28T09:40:56.140Z,94441.78
2022-09-28T09:43:47.320Z,94438.23
2022-09-28T09:46:41.009Z,94435.67
2022-09-28T09:49:36.097Z,94438.73
2022-09-28T09:52:15.399Z,94438.27
2022-09-28T09:54:46.752Z,94436.26
2022-09-28T09:57:30.718Z,94436.14
2022-09-28T10:00:12.232Z,94437.34
2022-09-28T10:02:49.220Z,94435.60
2022-09-28T10:05:28.088Z,94445.80
2022-09-28T10:07:56.469Z,94441.08
2022-09-28T10:10:30.185Z,94434.52
2022-09-28T10:13:08.934Z,94426.83
2022-09-28T10:15:37.526Z,94415.89
2022-09-28T10:18:25.990Z,94417.96
2022-09-28T10:20:53.912Z,94426.23
2022-09-28T10:23:34.143Z,94429.30
2022-09-28T10:26:15.176Z,94427.27
2022-09-28T10:28:47.721Z,94422.21
2022-09-28T10:31:35.764Z,94424.18
2022-09-28T10:34:05.312Z,94418.88
2022-09-28T10:36:38.871Z,94419.09
2022-09-28T10:39:21.570Z,94415.30
2022-09-28T10:41:50.793Z,94413.98
2022-09-28T10:44:23.164Z,94414.20
2022-09-28T10:47:03.522Z,94414.90
2022-09-28T10:49:46.975Z,94414.89
2022-09-28T10:52:29.102Z,94416.05
2022-09-28T10:54:57.415Z,94419.45
2022-09-28T10:57:36.692Z,94416.05
2022-09-28T11:00:27.490Z,94417.13
2022-09-28T11:03:26.666Z,94413.39
2022-09-28T11:05:57.750Z,94412.20
2022-09-28T11:08:28.435Z,94410.95
2022-09-28T11:11:09.033Z,94410.06
2022-09-28T11:14:01.483Z,94408.03
2022-09-28T11:16:34.360Z,94404.44
2022-09-28T11:19:18.042Z,94407.81
2022-09-28T11:21:46.310Z,94407.36
2022-09-28T11:24:19.284Z,94410.46
2022-09-28T11:26:50.239Z,94405.77
2022-09-28T11:29:31.521Z,94406.95
2022-09-28T11:32:22.022Z,94410.32
2022-09-28T11:35:36.865Z,94410.17
2022-09-28T11:38:20.692Z,94414.56
2022-09-28T11:41:10.289Z,94419.05
2022-09-28T11:43:38.603Z,94419.04
2022-09-28T11:46:10.315Z,94415.67
2022-09-28T11:48:44.184Z,94417.80
2022-09-28T11:51:17.058Z,94418.39
2022-09-28T11:53:50.520Z,94418.97
2022-09-28T11:56:37.448Z,94418.38
2022-09-28T11:59:15.461Z,94418.25
2022-09-28T12:01:47.059Z,94415.66
2022-09-28T12:04:21.522Z,94415.33
2022-09-28T12:07:15.856Z,94409.32
2022-09-28T12:09:53.646Z,94406.02
2022-09-28T12:12:32.947Z,94408.41
2022-09-28T12:15:14.949Z,94410.29
2022-09-28T12:17:45.705Z,94406.89
2022-09-28T12:20:20.052Z,94415.48
2022-09-28T12:22:50.753Z,94413.44
2022-09-28T12:25:21.376Z,94416.90
2022-09-28T12:27:55.782Z,94418.52
2022-09-28T12:30:27.895Z,94420.98
2022-09-28T12:33:05.152Z,94422.63
2022-09-28T12:35:39.998Z,94422.36
2022-09-28T12:38:26.900Z,94417.50
2022-09-28T12:41:13.304Z,94417.79
2022-09-28T12:43:49.773Z,94419.87
2022-09-28T12:46:36.903Z,94419.02
2022-09-28T12:52:25.380Z,94417.78
2022-09-28T12:55:12.074Z,94420.77
2022-09-28T12:57:43.301Z,94421.48
2022-09-28T13:00:25.400Z,94422.18
2022-09-28T13:02:59.805Z,94420.27
2022-09-28T13:06:00.896Z,94419.14
2022-09-28T13:08:31.924Z,94424.20
2022-09-28T13:11:07.029Z,94423.30
2022-09-28T13:14:01.897Z,94427.05
2022-09-28T13:16:38.144Z,94423.09
2022-09-28T13:19:06.259Z,94419.98
2022-09-28T13:21:53.108Z,94421.77
2022-09-28T13:24:32.709Z,94424.49
2022-09-28T13:27:10.990Z,94427.08
2022-09-28T13:32:14.008Z,94424.05
2022-09-28T13:34:42.685Z,94423.60
2022-09-28T13:37:26.426Z,94427.02
2022-09-28T13:39:56.616Z,94428.48
2022-09-28T13:42:47.761Z,94432.52
2022-09-28T13:45:21.572Z,94433.14
2022-09-28T13:48:01.967Z,94432.61
2022-09-28T13:50:30.317Z,94426.95
2022-09-28T13:53:12.724Z,94428.98
2022-09-28T13:55:51.344Z,94427.47
2022-09-28T13:58:28.210Z,94426.02
2022-09-28T14:01:02.193Z,94425.27
2022-09-28T14:03:49.150Z,94428.45
2022-09-28T14:06:26.549Z,94427.58
2022-09-28T14:09:13.155Z,94426.37
2022-09-28T14:11:54.639Z,94425.20
2022-09-28T14:14:26.882Z,94429.69
2022-09-28T14:17:14.200Z,94429.48
2022-09-28T14:19:42.726Z,94429.21
2022-09-28T14:22:10.611Z,94433.48
2022-09-28T14:24:45.281Z,94431.20
2022-09-28T14:27:13.497Z,94432.12
2022-09-28T14:29:41.889Z,94429.94
2022-09-28T14:32:09.845Z,94427.19
2022-09-28T14:34:41.657Z,94428.67
2022-09-28T14:37:38.146Z,94425.73
2022-09-28T14:40:37.095Z,94426.72
2022-09-28T14:43:26.949Z,94424.14
2022-09-28T14:46:19.985Z,94423.16
2022-09-28T14:48:51.155Z,94420.21
2022-09-28T14:51:26.477Z,94424.02
2022-09-28T14:53:55.561Z,94422.30
2022-09-28T14:56:25.435Z,94419.30
2022-09-28T14:58:57.355Z,94423.46
2022-09-28T15:01:26.140Z,94424.86
2022-09-28T15:03:59.694Z,94425.25
2022-09-28T15:06:43.552Z,94430.79
2022-09-28T15:09:29.889Z,94436.79
2022-09-28T15:12:18.237Z,94432.81
2022-09-28T15:15:05.768Z,94430.02
2022-09-28T15:17:39.942Z,94428.20
2022-09-28T15:20:30.285Z,94432.29
2022-09-28T15:22:59.267Z,94432.80
2022-09-28T15:25:28.433Z,94430.73
2022-09-28T15:27:58.188Z,94434.91
2022-09-28T15:30:28.021Z,94435.13
2022-09-28T15:33:16.962Z,94432.38
2022-09-28T15:35:50.404Z,94427.56
2022-09-28T15:38:18.578Z,94428.61
2022-09-28T15:40:47.811Z,94432.89
2022-09-28T15:43:27.009Z,94436.14
2022-09-28T15:46:13.548Z,94435.56
2022-09-28T15:48:52.916Z,94432.60
2022-09-28T15:51:22.291Z,94432.52
2022-09-28T15:54:03.142Z,94434.72
2022-09-28T15:56:32.198Z,94433.83
2022-09-28T15:59:15.638Z,94436.40
2022-09-28T16:01:44.469Z,94434.78
2022-09-28T16:04:31.431Z,94436.32
2022-09-28T16:07:18.871Z,94434.67
2022-09-28T16:10:06.428Z,94435.23
2022-09-28T16:12:37.739Z,94435.20
2022-09-28T16:15:21.281Z,94436.09
2022-09-28T16:18:00.817Z,94434.83
2022-09-28T16:20:36.495Z,94437.40
2022-09-28T16:23:16.835Z,94433.05
2022-09-28T16:25:51.916Z,94436.51
2022-09-28T16:28:30.425Z,94439.64
2022-09-28T16:31:01.936Z,94441.46
2022-09-28T16:33:38.414Z,94442.55
2022-09-28T16:36:11.296Z,94443.64
2022-09-28T16:38:39.302Z,94441.16
2022-09-28T16:41:08.976Z,94439.80
2022-09-28T16:43:37.255Z,94434.00
2022-09-28T16:46:09.364Z,94434.66
2022-09-28T16:48:41.497Z,94435.22
2022-09-28T16:51:09.461Z,94436.86
2022-09-28T16:53:56.174Z,94431.47
2022-09-28T16:56:24.279Z,94433.73
2022-09-28T16:58:52.263Z,94436.81
2022-09-28T17:01:21.100Z,94434.48
2022-09-28T17:03:50.328Z,94434.33
2022-09-28T17:06:19.817Z,94432.58
2022-09-28T17:08:48.197Z,94435.02
2022-09-28T17:11:22.700Z,94435.21
2022-09-28T17:13:52.227Z,94436.95
2022-09-28T17:16:32.580Z,94435.75
2022-09-28T17:19:16.398Z,94438.92
2022-09-28T17:21:44.468Z,94435.38
2022-09-28T17:24:12.440Z,94434.94
2022-09-28T17:26:41.370Z,94432.80
2022-09-28T17:29:14.439Z,94431.81
2022-09-28T17:31:43.459Z,94430.70
2022-09-28T17:34:12.534Z,94435.86
2022-09-28T17:36:41.343Z,94443.40
2022-09-28T17:39:11.473Z,94442.88
2022-09-28T17:41:40.358Z,94444.64
2022-09-28T17:44:08.857Z,94447.08
2022-09-28T17:46:38.764Z,94450.30
2022-09-28T17:49:08.061Z,94452.02
2022-09-28T17:51:39.513Z,94455.21
2022-09-28T17:54:08.362Z,94451.42
2022-09-28T17:56:36.852Z,94451.42
2022-09-28T17:59:06.394Z,94455.30
2022-09-28T18:01:37.984Z,94455.35
2022-09-28T18:04:08.380Z,94449.55
2022-09-28T18:06:39.686Z,94453.45
2022-09-28T18:09:09.441Z,94457.04
2022-09-28T18:11:42.575Z,94461.21
2022-09-28T18:14:11.408Z,94465.40
2022-09-28T18:16:39.483Z,94473.06
2022-09-28T18:19:07.591Z,94469.03
2022-09-28T18:21:35.539Z,94470.17
2022-09-28T18:24:03.575Z,94467.09
2022-09-28T18:26:31.503Z,94462.71
2022-09-28T18:28:59.558Z,94463.81
2022-09-28T18:31:28.129Z,94468.56
2022-09-28T18:34:01.154Z,94463.67
2022-09-28T18:36:30.031Z,94459.77
2022-09-28T18:38:59.769Z,94459.74
2022-09-28T18:41:28.517Z,94461.09
2022-09-28T18:44:05.509Z,94461.42
2022-09-28T18:46:36.894Z,94461.63
2022-09-28T18:49:05.247Z,94460.63
2022-09-28T18:51:33.311Z,94461.20
2022-09-28T18:54:07.555Z,94456.61
2022-09-28T18:56:37.485Z,94460.40
2022-09-28T18:59:17.410Z,94462.54
2022-09-28T19:01:45.496Z,94461.84
2022-09-28T19:04:13.752Z,94463.08
2022-09-28T19:06:43.049Z,94459.14
2022-09-28T19:09:11.440Z,94464.14
2022-09-28T19:11:39.310Z,94468.23
2022-09-28T19:14:11.207Z,94465.92
2022-09-28T19:16:39.166Z,94463.11
2022-09-28T19:19:07.205Z,94465.25
2022-09-28T19:21:35.575Z,94464.19
2022-09-28T19:24:04.169Z,94468.81
2022-09-28T19:26:33.166Z,94465.52
2022-09-28T19:29:02.932Z,94467.50
2022-09-28T19:31:32.092Z,94465.16
2022-09-28T19:34:00.212Z,94467.80
2022-09-28T19:36:28.837Z,94472.16
2022-09-28T19:38:58.055Z,94473.45
2022-09-28T19:41:49.651Z,94471.47
2022-09-28T19:44:25.250Z,94468.69
2022-09-28T19:46:57.427Z,94464.27
2022-09-28T19:49:26.901Z,94465.21
2022-09-28T19:52:11.722Z,94465.89
2022-09-28T19:54:57.405Z,94462.48
2022-09-28T19:57:27.842Z,94462.37
2022-09-28T20:00:01.646Z,94461.86
2022-09-28T20:02:34.022Z,94454.02
2022-09-28T20:05:02.284Z,94454.40
2022-09-28T20:07:33.189Z,94460.33
2022-09-28T20:10:01.383Z,94457.70
2022-09-28T20:12:29.724Z,94461.80
2022-09-28T20:14:58.072Z,94459.30
2022-09-28T20:17:26.178Z,94465.38
2022-09-28T20:19:54.137Z,94469.86
2022-09-28T20:22:22.146Z,94471.62
2022-09-28T20:24:50.203Z,94470.98
2022-09-28T20:27:18.369Z,94473.02
2022-09-28T20:29:46.343Z,94477.88
2022-09-28T20:32:14.304Z,94476.21
2022-09-28T20:34:42.300Z,94479.19
2022-09-28T20:37:12.609Z,94475.63
2022-09-28T20:39:44.771Z,94474.13
2022-09-28T20:42:15.741Z,94477.95
2022-09-28T20:44:44.035Z,94475.77
2022-09-28T20:47:12.113Z,94470.79
2022-09-28T20:49:40.265Z,94474.24
2022-09-28T20:52:08.318Z,94475.04
2022-09-28T20:54:38.157Z,94470.79
2022-09-28T20:57:17.715Z,94470.79
2022-09-28T20:59:52.156Z,94471.10
2022-09-28T21:02:22.676Z,94470.00
2022-09-28T21:04:51.031Z,94470.10
2022-09-28T21:07:19.288Z,94471.80
2022-09-28T21:09:47.503Z,94472.38
2022-09-28T21:12:15.544Z,94472.38
2022-09-28T21:14:43.664Z,94471.54
2022-09-28T21:17:11.593Z,94473.77
2022-09-28T21:19:39.756Z,94474.14
2022-09-28T21:22:07.777Z,94479.94
2022-09-28T21:24:35.903Z,94486.39
2022-09-28T21:27:03.945Z,94487.56
2022-09-28T21:29:31.952Z,94491.52
2022-09-28T21:32:00.429Z,94495.56
2022-09-28T21:34:28.425Z,94502.37
2022-09-28T21:36:56.372Z,94503.42
2022-09-28T21:39:24.389Z,94499.30
2022-09-28T21:41:52.311Z,94501.01
2022-09-28T21:44:20.481Z,94502.54
2022-09-28T21:46:48.668Z,94504.19
2022-09-28T21:49:16.738Z,94507.92
2022-09-28T21:51:47.311Z,94509.88
2022-09-28T21:54:15.559Z,94510.95
2022-09-28T21:56:43.495Z,94510.05
2022-09-28T21:59:11.511Z,94508.61
2022-09-28T22:01:42.825Z,94508.30
2022-09-28T22:04:11.324Z,94511.12
2022-09-28T22:06:39.975Z,94507.02
2022-09-28T22:09:08.388Z,94511.05
2022-09-28T22:11:36.903Z,94508.23
2022-09-28T22:14:04.843Z,94511.89
2022-09-28T22:16:33.167Z,94513.98
2022-09-28T22:19:01.718Z,94516.86
2022-09-28T22:21:32.033Z,94512.17
2022-09-28T22:24:01.444Z,94509.73
2022-09-28T22:26:30.330Z,94511.96
2022-09-28T22:29:02.627Z,94509.46
2022-09-28T22:31:32.257Z,94508.08
2022-09-28T22:34:01.000Z,94502.59
2022-09-28T22:36:29.226Z,94502.75
2022-09-28T22:38:57.978Z,94504.39
2022-09-28T22:41:26.145Z,94501.67
2022-09-28T22:43:54.882Z,94496.09
2022-09-28T22:46:25.281Z,94504.88
2022-09-28T22:48:54.952Z,94503.07
2022-09-28T22:51:23.678Z,94507.55
2022-09-28T22:53:51.628Z,94506.16
2022-09-28T22:56:20.008Z,94513.89
2022-09-28T22:58:48.084Z,94520.48
2022-09-28T23:01:18.054Z,94515.05
2022-09-28T23:03:46.072Z,94513.29
2022-09-28T23:06:16.672Z,94509.21
2022-09-28T23:08:45.549Z,94515.17
2022-09-28T23:11:13.885Z,94510.32
2022-09-28T23:13:42.020Z,94496.64
2022-09-28T23:16:15.007Z,94494.41
2022-09-28T23:18:43.772Z,94503.11
2022-09-28T23:21:13.132Z,94506.16
2022-09-28T23:23:42.154Z,94506.46
2022-09-28T23:26:14.092Z,94505.78
2022-09-28T23:28:42.679Z,94505.08
2022-09-28T23:31:13.670Z,94494.30
2022-09-28T23:33:41.897Z,94493.98
2022-09-28T23:36:10.038Z,94492.67
2022-09-28T23:38:38.576Z,94489.30
2022-09-28T23:41:07.036Z,94482.60
2022-09-28T23:43:36.295Z,94478.41
2022-09-28T23:46:04.971Z,94477.50
2022-09-28T23:48:33.146Z,94470.45
2022-09-28T23:51:01.532Z,94468.58
2022-09-28T23:53:30.183Z,94469.18
2022-09-28T23:55:58.574Z,94467.64
2022-09-28T23:58:26.725Z,94474.47
